Flight Track Log - Related Links

Times and Time Zones

All times are in EDT time to prevent confusion due to time zone crossing. See the N724HS flight status page for this flight to view local times or setup timezone preferences in your user account.

Time Position Orientation Groundspeed Altitude Reporting Facility
EDT Latitude Longitude Course Direction KTS MPH feet Rate Location/Type
Sun 04:29:10 PM 24.2803 -75.7106 294° West 199 229 6,200  Level Miami Center
Sun 04:30:13 PM 24.3031 -75.7667 294° West 199 229 7,500 1,200 Climbing Miami Center
Sun 04:31:15 PM 24.3253 -75.8219 294° West 199 229 8,700 1,210 Climbing Miami Center
Sun 04:32:17 PM 24.3536 -75.8889 295° West 199 229 10,000 1,161 Climbing Miami Center
Sun 04:33:19 PM 24.3728 -75.9478 290° West 199 229 11,100 1,113 Climbing Miami Center
Sun 04:34:21 PM 24.3900 -76.0097 287° West 203 234 12,300 1,065 Climbing Miami Center
Sun 04:35:23 PM 24.4078 -76.0714 288° West 208 239 13,300 919 Climbing Miami Center
Sun 04:36:25 PM 24.4264 -76.1331 288° West 209 241 14,200 919 Climbing Miami Center
Sun 04:37:27 PM 24.4486 -76.2075 288° West 211 243 15,200 823 Climbing Miami Center
Sun 04:38:29 PM 24.4667 -76.2692 288° West 211 243 15,900 387 Climbing Miami Center
Sun 04:39:31 PM 24.4861 -76.3342 288° West 214 246 16,000 48 Climbing Miami Center
Sun 04:40:33 PM 24.5072 -76.4044 288° West 227 261 16,000  Level Miami Center
Sun 04:41:35 PM 24.5283 -76.4767 288° West 238 274 16,000  Level Miami Center
Sun 04:42:37 PM 24.5500 -76.5506 288° West 245 282 16,000  Level Miami Center
Sun 04:43:39 PM 24.5708 -76.6236 287° West 247 284 16,000  Level Miami Center
Sun 04:44:41 PM 24.5961 -76.7114 288° West 248 285 16,000  Level Miami Center
Sun 04:45:43 PM 24.6172 -76.7858 287° West 249 287 16,000  Level Miami Center
Sun 04:46:45 PM 24.6397 -76.8592 289° West 249 287 16,000  Level Miami Center
Sun 04:47:47 PM 24.6817 -76.9194 307° West 250 288 16,000  Level Miami Center
Sun 04:48:49 PM 24.7236 -76.9803 307° West 250 288 16,000  Level Miami Center
Sun 04:49:51 PM 24.7628 -77.0453 304° West 250 288 16,000  Level Miami Center
Sun 04:50:53 PM 24.8114 -77.1197 306° West 250 288 16,000  Level Miami Center
Sun 04:51:55 PM 24.8517 -77.1831 305° West 250 288 16,000  Level Miami Center
Sun 04:52:57 PM 24.8931 -77.2456 306° West 250 288 16,000  Level Miami Center
Sun 04:53:59 PM 24.9342 -77.3086 306° West 250 288 16,000  Level Miami Center
Sun 04:55:01 PM 24.9742 -77.3717 305° West 250 288 16,000  Level Miami Center
Sun 04:56:03 PM 25.0153 -77.4339 306° West 251 289 16,000  Level Miami Center
Sun 04:57:04 PM 25.0572 -77.4964 307° West 251 289 16,000  Level Miami Center
Sun 04:58:06 PM 25.1119 -77.5672 310° West 251 289 16,000  Level Miami Center
Sun 04:59:08 PM 25.1550 -77.6278 308° West 251 289 16,000  Level Miami Center
Sun 05:00:10 PM 25.1994 -77.6858 310° West 251 289 16,000  Level Miami Center
Sun 05:01:12 PM 25.2428 -77.7467 308° West 251 289 16,000  Level Miami Center
Sun 05:02:14 PM 25.2872 -77.8061 310° West 250 288 16,000  Level Miami Center
Sun 05:03:16 PM 25.3231 -77.8681 303° West 247 284 16,000  Level Miami Center
Sun 05:04:18 PM 25.3389 -77.9450 283° West 244 281 16,000  Level Miami Center
Sun 05:05:20 PM 25.3581 -78.0222 285° West 251 289 16,000  Level Miami Center
Sun 05:06:22 PM 25.3869 -78.1081 290° West 251 289 16,000  Level Miami Center
Sun 05:07:24 PM 25.4086 -78.1819 288° West 251 289 16,000  Level Miami Center
Sun 05:08:25 PM 25.4339 -78.2547 291° West 251 289 16,000  Level Miami Center
Sun 05:09:27 PM 25.4572 -78.3272 290° West 251 289 16,000  Level Miami Center
Sun 05:10:29 PM 25.4792 -78.4003 288° West 251 289 16,000  Level Miami Center
Sun 05:11:31 PM 25.5017 -78.4736 289° West 251 289 16,000  Level Miami Center
Sun 05:12:33 PM 25.5297 -78.5603 290° West 251 289 16,000  Level Miami Center
Sun 05:13:35 PM 25.5506 -78.6292 289° West 251 289 16,000 -484 Level Miami Center
Sun 05:14:37 PM 25.5731 -78.7103 287° West 260 299 15,000 -919 Descending Miami Center
Sun 05:15:39 PM 25.5967 -78.7864 289° West 270 311 14,100 -871 Descending Miami Center
Sun 05:16:41 PM 25.6200 -78.8619 289° West 264 304 13,200 -823 Descending Miami Center
Sun 05:17:43 PM 25.6419 -78.9375 288° West 262 302 12,400 -1,043 Descending Miami Center
Sun 05:19:22 PM 25.6858 -79.0733 290° West 268 308 10,400 -1,230 Descending Miami Center
Sun 05:20:24 PM 25.7081 -79.1508 288° West 267 307 9,100 -1,268 Descending Miami Center
Sun 05:21:25 PM 25.7306 -79.2256 288° West 262 302 7,800 -1,220 Descending Miami Center
Sun 05:22:27 PM 25.7508 -79.3000 287° West 259 298 6,600 -1,210 Descending Miami Center
Sun 05:23:29 PM 25.7739 -79.3756 289° West 259 298 5,300 -1,351 Descending Miami Center
Sun 05:24:18 PM 25.7964 -79.4483 289° West 253 291 4,100 -1,161 Descending Miami Center
Sun 05:24:31 PM 25.8017 -79.4633 291° West 254 292 4,100 -167 Level Miami Center
Sun 05:24:54 PM 25.8086 -79.4908 286° West 247 284 4,000  Descending Miami Center
Sun 05:25:33 PM 25.8217 -79.5350 288° West 247 284 4,100  Climbing Miami Center
Sun 05:25:55 PM 25.8297 -79.5617 289° West 238 274 4,000 -97 Descending Miami Center
Sun 05:26:35 PM 25.8433 -79.6039 290° West 239 275 4,000  Level Miami Center
Sun 05:26:57 PM 25.8506 -79.6350 284° West 238 274 4,000  Level Miami Center
Sun 05:27:37 PM 25.8672 -79.6711 297° West 237 273 4,000  Level Miami Center
Sun 05:27:58 PM 25.8803 -79.6994 297° West 237 273 4,000  Level Miami Center
Sun 05:28:39 PM 25.8956 -79.7361 295° West 236 272 4,000  Level Miami Center
Sun 05:29:05 PM 25.9094 -79.7689 295° West 220 253 4,000  Level Miami Center
Sun 05:29:41 PM 25.9219 -79.7975 296° West 225 259 4,000  Level Miami Center
Sun 05:30:06 PM 25.9389 -79.8381 295° West 239 275 4,000 -387 Level Miami Center
Sun 05:30:43 PM 25.9558 -79.8789 295° West 240 276 3,600 -787 Descending Miami Center
Sun 05:31:07 PM 25.9683 -79.9075 296° West 250 288 3,200 -581 Descending Miami Center
Sun 05:31:45 PM 25.9864 -79.9486 296° West 247 284 3,000 -197 Descending Miami Center
Sun 05:32:08 PM 25.9869 -79.9806 271° West 237 273 3,000  Level Miami Center
Sun 05:32:47 PM 25.9889 -80.0189 273° West 230 265 3,000  Level Miami Center
Sun 05:33:09 PM 25.9889 -80.0503 270° West 223 257 3,000  Level Miami Center
Sun 05:33:49 PM 25.9908 -80.0869 273° West 224 258 3,000  Level Miami Center
Sun 05:34:10 PM 25.9911 -80.1153 271° West 203 234 3,000  Level Miami Center
Sun 05:34:51 PM 25.9919 -80.1483 272° West 204 235 3,000  Level Miami Center
Sun 05:35:12 PM 25.9914 -80.1803 269° West 196 226 3,000  Level Miami Center
Sun 05:35:53 PM 25.9933 -80.2083 274° West 199 229 3,000  Level Miami Center
Sun 05:36:12 PM 25.9981 -80.2386 280° West 190 219 3,000  Level Miami Center
Sun 05:36:55 PM 26.0142 -80.2742 297° West 190 219 3,000  Level Miami Center
Sun 05:37:14 PM 26.0242 -80.2894 306° West 195 224 3,000  Level Miami Center
Sun 05:37:57 PM 26.0525 -80.2811 15° North 156 180 3,000  Level Miami Center
Sun 05:38:15 PM 26.0647 -80.2764 19° North 130 150 3,000 -194 Level Miami Center
Sun 05:38:59 PM 26.0858 -80.2631 30° Northeast 132 152 2,800 -627 Descending Miami Center
Sun 05:39:22 PM 26.0772 -80.2472 121° Southeast 122 140 2,300 -968 Descending Miami Center
Sun 05:40:01 PM 26.0656 -80.2328 132° Southeast 125 144 1,800 -982 Descending Miami Center
Sun 05:40:17 PM 26.0664 -80.2186 86° East 119 137 1,400 -857 Descending Miami Center
Sun 05:41:04 PM 26.0808 -80.2064 37° Northeast 118 136 900 -787 Descending Miami Center
Sun 05:41:18 PM 26.0867 -80.1969 55° Northeast 106 122 600 -774 Descending Miami Center
Sun 05:42:06 PM 26.0767 -80.1739 116° Southeast 106 122 100 -625 Descending Miami Center

Login

Don't have an account? Register now (free) for customized features, flight alerts, and more!